sensor_id;sensor_type;location;lat;lon;timestamp;P1;durP1;ratioP1;P2;durP2;ratioP2
80987;SDS011;70452;39.386;-3.210;2023-06-10T00:00:56;1.73;;;0.10;;
80987;SDS011;70452;39.386;-3.210;2023-06-10T00:03:23;0.70;;;0.00;;
80987;SDS011;70452;39.386;-3.210;2023-06-10T00:05:49;0.88;;;0.00;;
80987;SDS011;70452;39.386;-3.210;2023-06-10T00:08:14;1.15;;;0.10;;
80987;SDS011;70452;39.386;-3.210;2023-06-10T00:10:44;0.75;;;0.10;;
80987;SDS011;70452;39.386;-3.210;2023-06-10T00:13:11;1.13;;;0.13;;
80987;SDS011;70452;39.386;-3.210;2023-06-10T00:15:37;1.45;;;0.10;;
80987;SDS011;70452;39.386;-3.210;2023-06-10T00:18:03;2.67;;;0.10;;
80987;SDS011;70452;39.386;-3.210;2023-06-10T00:20:29;0.70;;;0.00;;
80987;SDS011;70452;39.386;-3.210;2023-06-10T00:22:56;1.27;;;0.10;;
80987;SDS011;70452;39.386;-3.210;2023-06-10T00:25:24;1.52;;;0.10;;
80987;SDS011;70452;39.386;-3.210;2023-06-10T00:27:53;1.13;;;0.05;;
80987;SDS011;70452;39.386;-3.210;2023-06-10T00:30:20;1.02;;;0.17;;
80987;SDS011;70452;39.386;-3.210;2023-06-10T00:32:46;1.13;;;0.10;;
80987;SDS011;70452;39.386;-3.210;2023-06-10T00:35:11;1.48;;;0.13;;
80987;SDS011;70452;39.386;-3.210;2023-06-10T00:37:37;1.50;;;0.10;;
80987;SDS011;70452;39.386;-3.210;2023-06-10T00:40:03;1.45;;;0.10;;
80987;SDS011;70452;39.386;-3.210;2023-06-10T00:42:29;1.55;;;0.10;;
80987;SDS011;70452;39.386;-3.210;2023-06-10T00:44:56;3.90;;;0.30;;
80987;SDS011;70452;39.386;-3.210;2023-06-10T00:47:23;3.60;;;0.63;;
80987;SDS011;70452;39.386;-3.210;2023-06-10T00:49:50;4.38;;;0.20;;
80987;SDS011;70452;39.386;-3.210;2023-06-10T00:52:17;2.78;;;0.22;;
80987;SDS011;70452;39.386;-3.210;2023-06-10T00:54:45;1.23;;;0.13;;
80987;SDS011;70452;39.386;-3.210;2023-06-10T00:57:10;1.77;;;0.20;;
80987;SDS011;70452;39.386;-3.210;2023-06-10T00:59:38;3.72;;;0.10;;
80987;SDS011;70452;39.386;-3.210;2023-06-10T01:02:12;1.83;;;0.10;;
80987;SDS011;70452;39.386;-3.210;2023-06-10T01:04:37;1.88;;;0.10;;
80987;SDS011;70452;39.386;-3.210;2023-06-10T01:07:10;2.45;;;0.20;;
80987;SDS011;70452;39.386;-3.210;2023-06-10T01:09:54;2.72;;;0.20;;
80987;SDS011;70452;39.386;-3.210;2023-06-10T01:15:16;3.97;;;0.20;;
80987;SDS011;70452;39.386;-3.210;2023-06-10T01:17:59;3.70;;;0.30;;
80987;SDS011;70452;39.386;-3.210;2023-06-10T01:20:29;5.22;;;0.68;;
80987;SDS011;70452;39.386;-3.210;2023-06-10T01:23:00;5.75;;;0.70;;
80987;SDS011;70452;39.386;-3.210;2023-06-10T01:25:31;8.63;;;0.90;;
80987;SDS011;70452;39.386;-3.210;2023-06-10T01:33:38;5.07;;;0.80;;
80987;SDS011;70452;39.386;-3.210;2023-06-10T01:36:08;6.32;;;0.93;;
80987;SDS011;70452;39.386;-3.210;2023-06-10T01:38:36;4.82;;;0.50;;
80987;SDS011;70452;39.386;-3.210;2023-06-10T01:41:18;4.18;;;0.70;;
80987;SDS011;70452;39.386;-3.210;2023-06-10T01:43:46;4.40;;;0.60;;
80987;SDS011;70452;39.386;-3.210;2023-06-10T01:46:12;5.50;;;0.80;;
80987;SDS011;70452;39.386;-3.210;2023-06-10T01:48:38;5.80;;;0.60;;
80987;SDS011;70452;39.386;-3.210;2023-06-10T01:51:04;3.80;;;0.50;;
80987;SDS011;70452;39.386;-3.210;2023-06-10T01:53:30;4.97;;;0.68;;
80987;SDS011;70452;39.386;-3.210;2023-06-10T01:55:56;5.03;;;0.73;;
80987;SDS011;70452;39.386;-3.210;2023-06-10T01:58:21;4.07;;;0.90;;
80987;SDS011;70452;39.386;-3.210;2023-06-10T02:00:48;3.50;;;0.50;;
80987;SDS011;70452;39.386;-3.210;2023-06-10T02:03:14;4.45;;;0.75;;
80987;SDS011;70452;39.386;-3.210;2023-06-10T02:05:39;7.00;;;0.75;;
80987;SDS011;70452;39.386;-3.210;2023-06-10T02:08:05;5.47;;;1.17;;
80987;SDS011;70452;39.386;-3.210;2023-06-10T02:10:31;3.97;;;0.40;;
80987;SDS011;70452;39.386;-3.210;2023-06-10T02:12:56;6.03;;;0.63;;
80987;SDS011;70452;39.386;-3.210;2023-06-10T02:15:22;3.95;;;1.17;;
80987;SDS011;70452;39.386;-3.210;2023-06-10T02:17:48;7.53;;;0.88;;
80987;SDS011;70452;39.386;-3.210;2023-06-10T02:20:14;5.20;;;0.70;;
80987;SDS011;70452;39.386;-3.210;2023-06-10T02:22:39;4.90;;;0.60;;
80987;SDS011;70452;39.386;-3.210;2023-06-10T02:25:05;8.10;;;1.65;;
80987;SDS011;70452;39.386;-3.210;2023-06-10T02:27:31;5.20;;;0.90;;
80987;SDS011;70452;39.386;-3.210;2023-06-10T02:29:57;4.38;;;0.57;;
80987;SDS011;70452;39.386;-3.210;2023-06-10T02:32:23;5.35;;;0.70;;
80987;SDS011;70452;39.386;-3.210;2023-06-10T02:34:48;8.50;;;1.23;;
80987;SDS011;70452;39.386;-3.210;2023-06-10T02:37:14;4.97;;;0.65;;
80987;SDS011;70452;39.386;-3.210;2023-06-10T02:39:41;4.07;;;0.80;;
80987;SDS011;70452;39.386;-3.210;2023-06-10T02:42:07;5.20;;;0.57;;
80987;SDS011;70452;39.386;-3.210;2023-06-10T02:44:36;6.00;;;0.77;;
80987;SDS011;70452;39.386;-3.210;2023-06-10T02:47:03;5.35;;;0.82;;
80987;SDS011;70452;39.386;-3.210;2023-06-10T02:49:28;5.75;;;0.73;;
80987;SDS011;70452;39.386;-3.210;2023-06-10T02:51:54;6.03;;;1.20;;
80987;SDS011;70452;39.386;-3.210;2023-06-10T02:54:21;6.43;;;1.30;;
80987;SDS011;70452;39.386;-3.210;2023-06-10T02:56:51;7.25;;;1.05;;
80987;SDS011;70452;39.386;-3.210;2023-06-10T02:59:17;6.20;;;1.27;;
80987;SDS011;70452;39.386;-3.210;2023-06-10T03:01:43;5.72;;;0.77;;
80987;SDS011;70452;39.386;-3.210;2023-06-10T03:04:09;4.90;;;0.82;;
80987;SDS011;70452;39.386;-3.210;2023-06-10T03:06:38;6.10;;;0.90;;
80987;SDS011;70452;39.386;-3.210;2023-06-10T03:09:10;7.80;;;1.45;;
80987;SDS011;70452;39.386;-3.210;2023-06-10T03:11:36;6.00;;;1.17;;
80987;SDS011;70452;39.386;-3.210;2023-06-10T03:14:03;5.88;;;1.27;;
80987;SDS011;70452;39.386;-3.210;2023-06-10T03:16:31;5.55;;;0.90;;
80987;SDS011;70452;39.386;-3.210;2023-06-10T03:18:57;6.25;;;0.98;;
80987;SDS011;70452;39.386;-3.210;2023-06-10T03:21:23;6.63;;;1.60;;
80987;SDS011;70452;39.386;-3.210;2023-06-10T03:23:48;5.40;;;1.00;;
80987;SDS011;70452;39.386;-3.210;2023-06-10T03:26:14;6.68;;;0.85;;
80987;SDS011;70452;39.386;-3.210;2023-06-10T03:28:40;7.90;;;1.10;;
80987;SDS011;70452;39.386;-3.210;2023-06-10T03:31:06;6.25;;;1.98;;
80987;SDS011;70452;39.386;-3.210;2023-06-10T03:33:32;10.52;;;2.10;;
80987;SDS011;70452;39.386;-3.210;2023-06-10T03:35:58;6.82;;;1.40;;
80987;SDS011;70452;39.386;-3.210;2023-06-10T03:38:23;6.70;;;1.20;;
80987;SDS011;70452;39.386;-3.210;2023-06-10T03:40:49;7.75;;;1.55;;
80987;SDS011;70452;39.386;-3.210;2023-06-10T03:43:15;6.65;;;1.60;;
80987;SDS011;70452;39.386;-3.210;2023-06-10T03:45:40;6.18;;;1.45;;
80987;SDS011;70452;39.386;-3.210;2023-06-10T03:48:06;8.48;;;2.00;;
80987;SDS011;70452;39.386;-3.210;2023-06-10T03:50:33;7.60;;;1.98;;
80987;SDS011;70452;39.386;-3.210;2023-06-10T03:52:59;4.97;;;1.45;;
80987;SDS011;70452;39.386;-3.210;2023-06-10T03:55:25;8.70;;;1.83;;
80987;SDS011;70452;39.386;-3.210;2023-06-10T03:57:51;8.48;;;2.35;;
80987;SDS011;70452;39.386;-3.210;2023-06-10T04:00:17;7.45;;;1.63;;
80987;SDS011;70452;39.386;-3.210;2023-06-10T04:02:46;8.70;;;1.58;;
80987;SDS011;70452;39.386;-3.210;2023-06-10T04:05:12;8.32;;;1.25;;
80987;SDS011;70452;39.386;-3.210;2023-06-10T04:07:39;8.55;;;1.33;;
80987;SDS011;70452;39.386;-3.210;2023-06-10T04:10:06;7.75;;;1.58;;
80987;SDS011;70452;39.386;-3.210;2023-06-10T04:12:34;7.07;;;1.52;;
80987;SDS011;70452;39.386;-3.210;2023-06-10T04:15:00;8.00;;;2.10;;
80987;SDS011;70452;39.386;-3.210;2023-06-10T04:17:27;9.70;;;1.65;;
80987;SDS011;70452;39.386;-3.210;2023-06-10T04:19:53;8.85;;;1.80;;
80987;SDS011;70452;39.386;-3.210;2023-06-10T04:22:20;7.30;;;1.67;;
80987;SDS011;70452;39.386;-3.210;2023-06-10T04:24:46;7.32;;;1.95;;
80987;SDS011;70452;39.386;-3.210;2023-06-10T04:27:11;8.00;;;1.90;;
80987;SDS011;70452;39.386;-3.210;2023-06-10T04:29:37;7.35;;;1.65;;
80987;SDS011;70452;39.386;-3.210;2023-06-10T04:32:03;7.50;;;1.80;;
80987;SDS011;70452;39.386;-3.210;2023-06-10T04:34:32;9.07;;;1.73;;
80987;SDS011;70452;39.386;-3.210;2023-06-10T04:36:58;6.97;;;1.65;;
80987;SDS011;70452;39.386;-3.210;2023-06-10T04:39:23;10.55;;;2.22;;
80987;SDS011;70452;39.386;-3.210;2023-06-10T04:41:49;7.85;;;1.67;;
80987;SDS011;70452;39.386;-3.210;2023-06-10T04:44:14;7.47;;;1.42;;
80987;SDS011;70452;39.386;-3.210;2023-06-10T04:46:40;6.82;;;1.27;;
80987;SDS011;70452;39.386;-3.210;2023-06-10T04:49:05;7.63;;;1.55;;
80987;SDS011;70452;39.386;-3.210;2023-06-10T04:51:31;6.75;;;1.40;;
80987;SDS011;70452;39.386;-3.210;2023-06-10T04:53:57;6.43;;;1.75;;
80987;SDS011;70452;39.386;-3.210;2023-06-10T04:56:23;7.07;;;2.20;;
80987;SDS011;70452;39.386;-3.210;2023-06-10T04:58:49;9.05;;;1.70;;
80987;SDS011;70452;39.386;-3.210;2023-06-10T05:01:15;8.82;;;1.33;;
80987;SDS011;70452;39.386;-3.210;2023-06-10T05:03:40;8.93;;;1.75;;
80987;SDS011;70452;39.386;-3.210;2023-06-10T05:06:07;8.52;;;1.85;;
80987;SDS011;70452;39.386;-3.210;2023-06-10T05:08:33;8.95;;;1.65;;
80987;SDS011;70452;39.386;-3.210;2023-06-10T05:11:01;12.07;;;1.48;;
80987;SDS011;70452;39.386;-3.210;2023-06-10T05:13:27;8.57;;;1.90;;
80987;SDS011;70452;39.386;-3.210;2023-06-10T05:15:53;7.07;;;1.92;;
80987;SDS011;70452;39.386;-3.210;2023-06-10T05:18:19;11.35;;;2.67;;
80987;SDS011;70452;39.386;-3.210;2023-06-10T05:20:44;13.43;;;1.77;;
80987;SDS011;70452;39.386;-3.210;2023-06-10T05:23:10;9.82;;;2.05;;
80987;SDS011;70452;39.386;-3.210;2023-06-10T05:25:36;8.52;;;2.22;;
80987;SDS011;70452;39.386;-3.210;2023-06-10T05:28:03;9.32;;;2.15;;
80987;SDS011;70452;39.386;-3.210;2023-06-10T05:30:34;6.32;;;1.45;;
80987;SDS011;70452;39.386;-3.210;2023-06-10T05:33:00;6.82;;;1.40;;
80987;SDS011;70452;39.386;-3.210;2023-06-10T05:35:27;10.18;;;2.08;;
80987;SDS011;70452;39.386;-3.210;2023-06-10T05:37:52;9.10;;;1.80;;
80987;SDS011;70452;39.386;-3.210;2023-06-10T05:40:22;7.88;;;1.65;;
80987;SDS011;70452;39.386;-3.210;2023-06-10T05:42:48;8.05;;;1.52;;
80987;SDS011;70452;39.386;-3.210;2023-06-10T05:45:14;7.30;;;1.30;;
80987;SDS011;70452;39.386;-3.210;2023-06-10T05:47:40;7.50;;;1.95;;
80987;SDS011;70452;39.386;-3.210;2023-06-10T05:50:06;7.93;;;1.70;;
80987;SDS011;70452;39.386;-3.210;2023-06-10T05:52:35;9.70;;;1.65;;
80987;SDS011;70452;39.386;-3.210;2023-06-10T05:55:04;8.65;;;1.40;;
80987;SDS011;70452;39.386;-3.210;2023-06-10T05:57:30;6.65;;;1.75;;
80987;SDS011;70452;39.386;-3.210;2023-06-10T05:59:57;7.03;;;1.83;;
80987;SDS011;70452;39.386;-3.210;2023-06-10T06:02:23;9.55;;;1.60;;
80987;SDS011;70452;39.386;-3.210;2023-06-10T06:04:49;8.02;;;1.80;;
80987;SDS011;70452;39.386;-3.210;2023-06-10T06:07:15;7.15;;;1.90;;
80987;SDS011;70452;39.386;-3.210;2023-06-10T06:09:41;7.40;;;1.95;;
80987;SDS011;70452;39.386;-3.210;2023-06-10T06:12:07;7.35;;;1.75;;
80987;SDS011;70452;39.386;-3.210;2023-06-10T06:14:39;8.85;;;2.92;;
80987;SDS011;70452;39.386;-3.210;2023-06-10T06:17:05;11.70;;;2.85;;
80987;SDS011;70452;39.386;-3.210;2023-06-10T06:19:31;6.00;;;1.60;;
80987;SDS011;70452;39.386;-3.210;2023-06-10T06:21:57;9.38;;;1.48;;
80987;SDS011;70452;39.386;-3.210;2023-06-10T06:24:25;7.72;;;2.03;;
80987;SDS011;70452;39.386;-3.210;2023-06-10T06:26:51;6.22;;;1.50;;
80987;SDS011;70452;39.386;-3.210;2023-06-10T06:29:17;8.93;;;1.70;;
80987;SDS011;70452;39.386;-3.210;2023-06-10T06:31:43;8.55;;;1.40;;
80987;SDS011;70452;39.386;-3.210;2023-06-10T06:34:10;10.85;;;2.13;;
80987;SDS011;70452;39.386;-3.210;2023-06-10T06:36:37;9.35;;;2.13;;
80987;SDS011;70452;39.386;-3.210;2023-06-10T06:39:03;7.10;;;2.00;;
80987;SDS011;70452;39.386;-3.210;2023-06-10T06:41:31;7.57;;;1.63;;
80987;SDS011;70452;39.386;-3.210;2023-06-10T06:43:56;8.65;;;1.70;;
80987;SDS011;70452;39.386;-3.210;2023-06-10T06:46:22;6.93;;;1.92;;
80987;SDS011;70452;39.386;-3.210;2023-06-10T06:48:47;10.70;;;2.42;;
80987;SDS011;70452;39.386;-3.210;2023-06-10T06:51:14;7.35;;;1.98;;
80987;SDS011;70452;39.386;-3.210;2023-06-10T06:53:40;5.97;;;2.00;;
80987;SDS011;70452;39.386;-3.210;2023-06-10T06:56:10;10.75;;;2.33;;
80987;SDS011;70452;39.386;-3.210;2023-06-10T06:58:36;8.48;;;2.08;;
80987;SDS011;70452;39.386;-3.210;2023-06-10T07:01:01;9.35;;;1.90;;
80987;SDS011;70452;39.386;-3.210;2023-06-10T07:03:28;9.05;;;2.10;;
80987;SDS011;70452;39.386;-3.210;2023-06-10T07:05:54;9.10;;;2.38;;
80987;SDS011;70452;39.386;-3.210;2023-06-10T07:08:19;9.10;;;2.75;;
80987;SDS011;70452;39.386;-3.210;2023-06-10T07:10:46;7.50;;;1.95;;
80987;SDS011;70452;39.386;-3.210;2023-06-10T07:13:12;8.68;;;1.80;;
80987;SDS011;70452;39.386;-3.210;2023-06-10T07:15:39;5.72;;;1.40;;
80987;SDS011;70452;39.386;-3.210;2023-06-10T07:18:05;6.97;;;1.92;;
80987;SDS011;70452;39.386;-3.210;2023-06-10T07:20:31;9.02;;;2.03;;
80987;SDS011;70452;39.386;-3.210;2023-06-10T07:22:57;8.82;;;1.90;;
80987;SDS011;70452;39.386;-3.210;2023-06-10T07:25:23;9.32;;;2.20;;
80987;SDS011;70452;39.386;-3.210;2023-06-10T07:27:49;8.10;;;2.42;;
80987;SDS011;70452;39.386;-3.210;2023-06-10T07:30:15;9.50;;;3.35;;
80987;SDS011;70452;39.386;-3.210;2023-06-10T07:32:41;7.15;;;2.30;;
80987;SDS011;70452;39.386;-3.210;2023-06-10T07:35:08;9.57;;;2.90;;
80987;SDS011;70452;39.386;-3.210;2023-06-10T07:37:39;8.82;;;2.88;;
80987;SDS011;70452;39.386;-3.210;2023-06-10T07:40:07;10.18;;;2.13;;
80987;SDS011;70452;39.386;-3.210;2023-06-10T07:42:34;6.07;;;1.75;;
80987;SDS011;70452;39.386;-3.210;2023-06-10T07:45:00;6.40;;;1.33;;
80987;SDS011;70452;39.386;-3.210;2023-06-10T07:47:26;7.45;;;1.27;;
80987;SDS011;70452;39.386;-3.210;2023-06-10T07:49:52;7.10;;;0.90;;
80987;SDS011;70452;39.386;-3.210;2023-06-10T07:52:19;5.97;;;1.00;;
80987;SDS011;70452;39.386;-3.210;2023-06-10T07:54:45;8.10;;;1.83;;
80987;SDS011;70452;39.386;-3.210;2023-06-10T07:57:11;5.90;;;1.40;;
80987;SDS011;70452;39.386;-3.210;2023-06-10T07:59:36;5.32;;;1.23;;
80987;SDS011;70452;39.386;-3.210;2023-06-10T08:02:03;6.07;;;1.45;;
80987;SDS011;70452;39.386;-3.210;2023-06-10T08:04:29;5.50;;;1.00;;
80987;SDS011;70452;39.386;-3.210;2023-06-10T08:06:56;5.72;;;1.60;;
80987;SDS011;70452;39.386;-3.210;2023-06-10T08:09:21;5.80;;;1.13;;
80987;SDS011;70452;39.386;-3.210;2023-06-10T08:11:48;7.47;;;1.55;;
80987;SDS011;70452;39.386;-3.210;2023-06-10T08:14:15;6.78;;;1.73;;
80987;SDS011;70452;39.386;-3.210;2023-06-10T08:16:41;7.68;;;2.05;;
80987;SDS011;70452;39.386;-3.210;2023-06-10T08:19:08;5.22;;;0.95;;
80987;SDS011;70452;39.386;-3.210;2023-06-10T08:21:34;7.70;;;1.58;;
80987;SDS011;70452;39.386;-3.210;2023-06-10T08:24:02;7.68;;;1.45;;
80987;SDS011;70452;39.386;-3.210;2023-06-10T08:26:28;6.32;;;1.33;;
80987;SDS011;70452;39.386;-3.210;2023-06-10T08:28:53;6.82;;;1.17;;
80987;SDS011;70452;39.386;-3.210;2023-06-10T08:31:20;5.68;;;1.27;;
80987;SDS011;70452;39.386;-3.210;2023-06-10T08:33:46;6.82;;;1.58;;
80987;SDS011;70452;39.386;-3.210;2023-06-10T08:36:12;5.68;;;1.05;;
80987;SDS011;70452;39.386;-3.210;2023-06-10T08:38:37;4.10;;;0.80;;
80987;SDS011;70452;39.386;-3.210;2023-06-10T08:41:05;3.97;;;0.75;;
80987;SDS011;70452;39.386;-3.210;2023-06-10T08:46:00;7.03;;;1.35;;
80987;SDS011;70452;39.386;-3.210;2023-06-10T08:48:30;6.65;;;0.90;;
80987;SDS011;70452;39.386;-3.210;2023-06-10T08:50:56;5.07;;;0.57;;
80987;SDS011;70452;39.386;-3.210;2023-06-10T08:53:23;4.63;;;0.60;;
80987;SDS011;70452;39.386;-3.210;2023-06-10T08:55:53;5.72;;;0.77;;
80987;SDS011;70452;39.386;-3.210;2023-06-10T08:58:23;6.88;;;0.70;;
80987;SDS011;70452;39.386;-3.210;2023-06-10T09:00:51;4.70;;;0.52;;
80987;SDS011;70452;39.386;-3.210;2023-06-10T09:03:19;5.45;;;0.85;;
80987;SDS011;70452;39.386;-3.210;2023-06-10T09:05:45;4.75;;;0.60;;
80987;SDS011;70452;39.386;-3.210;2023-06-10T09:08:11;6.03;;;0.70;;
80987;SDS011;70452;39.386;-3.210;2023-06-10T09:10:39;5.40;;;0.43;;
80987;SDS011;70452;39.386;-3.210;2023-06-10T09:13:06;6.35;;;0.75;;
80987;SDS011;70452;39.386;-3.210;2023-06-10T09:15:31;7.05;;;0.63;;
80987;SDS011;70452;39.386;-3.210;2023-06-10T09:17:57;6.20;;;0.70;;
80987;SDS011;70452;39.386;-3.210;2023-06-10T09:20:23;4.65;;;0.50;;
80987;SDS011;70452;39.386;-3.210;2023-06-10T09:22:48;3.30;;;0.43;;
80987;SDS011;70452;39.386;-3.210;2023-06-10T09:25:14;3.22;;;0.65;;
80987;SDS011;70452;39.386;-3.210;2023-06-10T09:27:47;3.60;;;0.80;;
80987;SDS011;70452;39.386;-3.210;2023-06-10T09:30:31;7.35;;;0.80;;
80987;SDS011;70452;39.386;-3.210;2023-06-10T09:32:59;3.42;;;0.55;;
80987;SDS011;70452;39.386;-3.210;2023-06-10T09:35:26;4.43;;;0.70;;
80987;SDS011;70452;39.386;-3.210;2023-06-10T09:37:55;4.63;;;0.57;;
80987;SDS011;70452;39.386;-3.210;2023-06-10T09:40:22;3.03;;;0.40;;
80987;SDS011;70452;39.386;-3.210;2023-06-10T09:45:21;4.05;;;0.52;;
80987;SDS011;70452;39.386;-3.210;2023-06-10T09:47:51;6.03;;;0.50;;
80987;SDS011;70452;39.386;-3.210;2023-06-10T09:50:17;4.35;;;0.47;;
80987;SDS011;70452;39.386;-3.210;2023-06-10T09:52:43;4.05;;;0.52;;
80987;SDS011;70452;39.386;-3.210;2023-06-10T09:55:11;3.20;;;0.50;;
80987;SDS011;70452;39.386;-3.210;2023-06-10T09:57:36;6.40;;;0.68;;
80987;SDS011;70452;39.386;-3.210;2023-06-10T10:00:10;4.03;;;0.70;;
80987;SDS011;70452;39.386;-3.210;2023-06-10T10:02:47;4.10;;;0.47;;
80987;SDS011;70452;39.386;-3.210;2023-06-10T10:05:15;6.00;;;1.90;;
80987;SDS011;70452;39.386;-3.210;2023-06-10T10:07:41;4.20;;;1.08;;
80987;SDS011;70452;39.386;-3.210;2023-06-10T10:10:08;6.22;;;1.00;;
80987;SDS011;70452;39.386;-3.210;2023-06-10T10:12:35;4.05;;;0.52;;
80987;SDS011;70452;39.386;-3.210;2023-06-10T10:15:01;5.15;;;0.70;;
80987;SDS011;70452;39.386;-3.210;2023-06-10T10:17:27;6.57;;;0.40;;
80987;SDS011;70452;39.386;-3.210;2023-06-10T10:19:57;3.05;;;0.50;;
80987;SDS011;70452;39.386;-3.210;2023-06-10T10:22:35;3.03;;;0.52;;
80987;SDS011;70452;39.386;-3.210;2023-06-10T10:25:08;4.03;;;0.57;;
80987;SDS011;70452;39.386;-3.210;2023-06-10T10:30:30;4.80;;;0.93;;
80987;SDS011;70452;39.386;-3.210;2023-06-10T10:36:07;3.78;;;0.90;;
80987;SDS011;70452;39.386;-3.210;2023-06-10T10:38:33;4.85;;;0.90;;
80987;SDS011;70452;39.386;-3.210;2023-06-10T10:41:00;4.20;;;0.43;;
80987;SDS011;70452;39.386;-3.210;2023-06-10T10:43:27;4.63;;;0.30;;
80987;SDS011;70452;39.386;-3.210;2023-06-10T10:46:00;4.05;;;0.50;;
80987;SDS011;70452;39.386;-3.210;2023-06-10T10:48:35;4.35;;;0.65;;
80987;SDS011;70452;39.386;-3.210;2023-06-10T10:51:04;3.10;;;0.95;;
80987;SDS011;70452;39.386;-3.210;2023-06-10T10:53:30;6.13;;;0.55;;
80987;SDS011;70452;39.386;-3.210;2023-06-10T10:56:14;5.03;;;0.70;;
80987;SDS011;70452;39.386;-3.210;2023-06-10T10:58:42;2.95;;;1.00;;
80987;SDS011;70452;39.386;-3.210;2023-06-10T11:01:48;5.65;;;0.63;;
80987;SDS011;70452;39.386;-3.210;2023-06-10T11:04:17;2.90;;;1.15;;
80987;SDS011;70452;39.386;-3.210;2023-06-10T11:06:52;3.30;;;0.85;;
80987;SDS011;70452;39.386;-3.210;2023-06-10T11:09:27;3.42;;;1.20;;
80987;SDS011;70452;39.386;-3.210;2023-06-10T11:14:30;7.82;;;0.63;;
80987;SDS011;70452;39.386;-3.210;2023-06-10T11:16:58;4.82;;;0.68;;
80987;SDS011;70452;39.386;-3.210;2023-06-10T11:19:37;3.05;;;0.50;;
80987;SDS011;70452;39.386;-3.210;2023-06-10T11:22:15;2.17;;;0.38;;
80987;SDS011;70452;39.386;-3.210;2023-06-10T11:24:49;3.50;;;0.50;;
80987;SDS011;70452;39.386;-3.210;2023-06-10T11:29:55;4.30;;;0.82;;
80987;SDS011;70452;39.386;-3.210;2023-06-10T11:32:45;2.90;;;0.63;;
80987;SDS011;70452;39.386;-3.210;2023-06-10T11:35:30;3.75;;;0.50;;
80987;SDS011;70452;39.386;-3.210;2023-06-10T11:38:00;3.10;;;0.43;;
80987;SDS011;70452;39.386;-3.210;2023-06-10T11:40:26;3.05;;;0.40;;
80987;SDS011;70452;39.386;-3.210;2023-06-10T11:42:55;2.45;;;0.55;;
80987;SDS011;70452;39.386;-3.210;2023-06-10T11:45:21;4.35;;;0.68;;
80987;SDS011;70452;39.386;-3.210;2023-06-10T11:47:58;4.55;;;1.17;;
80987;SDS011;70452;39.386;-3.210;2023-06-10T11:50:30;2.88;;;0.77;;
80987;SDS011;70452;39.386;-3.210;2023-06-10T11:53:05;4.93;;;1.00;;
80987;SDS011;70452;39.386;-3.210;2023-06-10T11:55:47;3.20;;;0.95;;
80987;SDS011;70452;39.386;-3.210;2023-06-10T11:58:14;2.55;;;0.63;;
80987;SDS011;70452;39.386;-3.210;2023-06-10T12:00:53;4.95;;;0.90;;
80987;SDS011;70452;39.386;-3.210;2023-06-10T12:03:23;3.97;;;0.98;;
80987;SDS011;70452;39.386;-3.210;2023-06-10T12:05:59;3.22;;;1.10;;
80987;SDS011;70452;39.386;-3.210;2023-06-10T12:08:28;5.05;;;0.93;;
80987;SDS011;70452;39.386;-3.210;2023-06-10T12:10:54;3.83;;;1.50;;
80987;SDS011;70452;39.386;-3.210;2023-06-10T12:13:21;3.15;;;1.10;;
80987;SDS011;70452;39.386;-3.210;2023-06-10T12:15:48;4.13;;;0.65;;
80987;SDS011;70452;39.386;-3.210;2023-06-10T12:18:18;3.42;;;1.08;;
80987;SDS011;70452;39.386;-3.210;2023-06-10T12:20:45;4.82;;;1.10;;
80987;SDS011;70452;39.386;-3.210;2023-06-10T12:23:11;3.40;;;0.80;;
80987;SDS011;70452;39.386;-3.210;2023-06-10T12:25:37;3.70;;;1.83;;
80987;SDS011;70452;39.386;-3.210;2023-06-10T12:28:04;3.13;;;1.52;;
80987;SDS011;70452;39.386;-3.210;2023-06-10T12:30:35;4.28;;;1.02;;
80987;SDS011;70452;39.386;-3.210;2023-06-10T12:33:01;3.30;;;1.02;;
80987;SDS011;70452;39.386;-3.210;2023-06-10T12:35:28;4.03;;;1.05;;
80987;SDS011;70452;39.386;-3.210;2023-06-10T12:37:57;4.32;;;1.00;;
80987;SDS011;70452;39.386;-3.210;2023-06-10T12:40:32;3.75;;;1.48;;
80987;SDS011;70452;39.386;-3.210;2023-06-10T12:43:00;3.60;;;1.60;;
80987;SDS011;70452;39.386;-3.210;2023-06-10T12:45:33;4.25;;;0.98;;
80987;SDS011;70452;39.386;-3.210;2023-06-10T12:50:35;2.55;;;0.70;;
80987;SDS011;70452;39.386;-3.210;2023-06-10T12:53:04;4.03;;;1.33;;
80987;SDS011;70452;39.386;-3.210;2023-06-10T12:55:30;3.17;;;0.60;;
80987;SDS011;70452;39.386;-3.210;2023-06-10T12:57:59;4.38;;;1.23;;
80987;SDS011;70452;39.386;-3.210;2023-06-10T13:00:28;5.85;;;2.03;;
80987;SDS011;70452;39.386;-3.210;2023-06-10T13:02:59;5.13;;;1.35;;
80987;SDS011;70452;39.386;-3.210;2023-06-10T13:05:27;3.30;;;0.80;;
80987;SDS011;70452;39.386;-3.210;2023-06-10T13:07:52;5.97;;;1.83;;
80987;SDS011;70452;39.386;-3.210;2023-06-10T13:10:19;3.95;;;1.25;;
80987;SDS011;70452;39.386;-3.210;2023-06-10T13:12:48;3.92;;;1.38;;
80987;SDS011;70452;39.386;-3.210;2023-06-10T13:15:15;5.78;;;1.98;;
80987;SDS011;70452;39.386;-3.210;2023-06-10T13:17:42;7.65;;;2.60;;
80987;SDS011;70452;39.386;-3.210;2023-06-10T13:20:14;4.18;;;0.63;;
80987;SDS011;70452;39.386;-3.210;2023-06-10T13:22:42;4.40;;;1.38;;
80987;SDS011;70452;39.386;-3.210;2023-06-10T13:25:08;5.65;;;2.03;;
80987;SDS011;70452;39.386;-3.210;2023-06-10T13:27:34;6.75;;;1.85;;
80987;SDS011;70452;39.386;-3.210;2023-06-10T13:30:06;5.03;;;0.95;;
80987;SDS011;70452;39.386;-3.210;2023-06-10T13:32:36;5.88;;;0.80;;
80987;SDS011;70452;39.386;-3.210;2023-06-10T13:35:02;2.65;;;0.93;;
80987;SDS011;70452;39.386;-3.210;2023-06-10T13:37:28;10.30;;;3.38;;
80987;SDS011;70452;39.386;-3.210;2023-06-10T13:39:54;9.52;;;1.55;;
80987;SDS011;70452;39.386;-3.210;2023-06-10T13:42:23;3.17;;;1.02;;
80987;SDS011;70452;39.386;-3.210;2023-06-10T13:44:51;2.50;;;1.30;;
80987;SDS011;70452;39.386;-3.210;2023-06-10T13:47:18;3.85;;;1.77;;
80987;SDS011;70452;39.386;-3.210;2023-06-10T13:49:45;4.88;;;1.52;;
80987;SDS011;70452;39.386;-3.210;2023-06-10T13:52:11;9.07;;;2.40;;
80987;SDS011;70452;39.386;-3.210;2023-06-10T13:54:37;3.95;;;0.77;;
80987;SDS011;70452;39.386;-3.210;2023-06-10T13:57:02;5.90;;;1.92;;
80987;SDS011;70452;39.386;-3.210;2023-06-10T13:59:31;3.70;;;1.02;;
80987;SDS011;70452;39.386;-3.210;2023-06-10T14:01:59;3.40;;;0.68;;
80987;SDS011;70452;39.386;-3.210;2023-06-10T14:04:28;4.00;;;1.65;;
80987;SDS011;70452;39.386;-3.210;2023-06-10T14:06:53;3.33;;;1.17;;
80987;SDS011;70452;39.386;-3.210;2023-06-10T14:09:19;2.70;;;0.22;;
80987;SDS011;70452;39.386;-3.210;2023-06-10T14:11:47;3.08;;;1.27;;
80987;SDS011;70452;39.386;-3.210;2023-06-10T14:14:13;2.50;;;1.13;;
80987;SDS011;70452;39.386;-3.210;2023-06-10T14:16:43;5.30;;;1.60;;
80987;SDS011;70452;39.386;-3.210;2023-06-10T14:19:09;5.88;;;1.90;;
80987;SDS011;70452;39.386;-3.210;2023-06-10T14:21:34;3.55;;;1.38;;
80987;SDS011;70452;39.386;-3.210;2023-06-10T14:24:00;3.22;;;1.33;;
80987;SDS011;70452;39.386;-3.210;2023-06-10T14:26:29;2.70;;;0.40;;
80987;SDS011;70452;39.386;-3.210;2023-06-10T14:28:57;3.33;;;0.50;;
80987;SDS011;70452;39.386;-3.210;2023-06-10T14:31:23;2.22;;;0.52;;
80987;SDS011;70452;39.386;-3.210;2023-06-10T14:33:48;3.08;;;1.13;;
80987;SDS011;70452;39.386;-3.210;2023-06-10T14:36:14;4.50;;;0.95;;
80987;SDS011;70452;39.386;-3.210;2023-06-10T14:38:44;3.67;;;1.27;;
80987;SDS011;70452;39.386;-3.210;2023-06-10T14:41:11;3.50;;;0.40;;
80987;SDS011;70452;39.386;-3.210;2023-06-10T14:43:37;4.13;;;0.63;;
80987;SDS011;70452;39.386;-3.210;2023-06-10T14:46:03;2.33;;;0.55;;
80987;SDS011;70452;39.386;-3.210;2023-06-10T14:48:29;3.35;;;0.65;;
80987;SDS011;70452;39.386;-3.210;2023-06-10T14:50:55;5.60;;;0.50;;
80987;SDS011;70452;39.386;-3.210;2023-06-10T14:53:20;2.65;;;0.38;;
80987;SDS011;70452;39.386;-3.210;2023-06-10T14:55:46;2.60;;;0.50;;
80987;SDS011;70452;39.386;-3.210;2023-06-10T14:58:14;2.55;;;0.68;;
80987;SDS011;70452;39.386;-3.210;2023-06-10T15:00:40;3.33;;;0.68;;
80987;SDS011;70452;39.386;-3.210;2023-06-10T15:03:07;2.22;;;0.60;;